Terminal Aerodrome Forecast
Issued by NWS Buffalo, NY

Home | Current Version | Previous Version | Text Only | Print | Product List | Glossary On
Versions: 1 2 3 4 5 6 7 8 9 10 11 12 13 14 15 16 17 18 19 20 21 22 23 24 25
000
FTUS41 KBUF 181500 AAB
TAFBUF
TAF AMD
KBUF 181500Z 1815/1912 21010KT 2SM -RA BR OVC006
     FM181800 22010G18KT P6SM OVC012
     FM182100 22011G20KT P6SM VCSH OVC012
     FM182300 23012G21KT P6SM OVC012
     FM190000 24012G21KT P6SM -DZ OVC012=

USA.gov is the U.S. government's official web portal to all federal, state and local government web resources and services.